sensor_id;sensor_type;location;lat;lon;timestamp;pressure;altitude;pressure_sealevel;temperature;humidity
66196;BME280;53000;45.182;5.736;2023-06-14T00:00:04;98563.69;;;22.66;65.13
66196;BME280;53000;45.182;5.736;2023-06-14T00:02:30;98567.84;;;22.69;64.47
66196;BME280;53000;45.182;5.736;2023-06-14T00:04:56;98570.31;;;22.65;65.10
66196;BME280;53000;45.182;5.736;2023-06-14T00:07:37;98563.97;;;22.65;64.99
66196;BME280;53000;45.182;5.736;2023-06-14T00:10:04;98554.56;;;22.61;65.35
66196;BME280;53000;45.182;5.736;2023-06-14T00:12:30;98561.69;;;22.52;64.50
66196;BME280;53000;45.182;5.736;2023-06-14T00:14:56;98552.50;;;22.41;65.95
66196;BME280;53000;45.182;5.736;2023-06-14T00:17:21;98554.88;;;22.32;65.18
66196;BME280;53000;45.182;5.736;2023-06-14T00:19:47;98562.06;;;22.28;66.17
66196;BME280;53000;45.182;5.736;2023-06-14T00:22:13;98556.47;;;22.23;65.35
66196;BME280;53000;45.182;5.736;2023-06-14T01:01:37;98534.59;;;22.11;65.64
66196;BME280;53000;45.182;5.736;2023-06-14T01:04:04;98531.84;;;22.11;65.71
66196;BME280;53000;45.182;5.736;2023-06-14T01:06:50;98527.97;;;22.12;65.55
66196;BME280;53000;45.182;5.736;2023-06-14T01:09:27;98525.75;;;22.09;65.13
66196;BME280;53000;45.182;5.736;2023-06-14T01:12:28;98530.94;;;22.05;65.12
66196;BME280;53000;45.182;5.736;2023-06-14T01:14:56;98530.63;;;22.02;64.97
66196;BME280;53000;45.182;5.736;2023-06-14T01:17:25;98540.59;;;22.03;64.97
66196;BME280;53000;45.182;5.736;2023-06-14T01:19:52;98537.00;;;22.02;65.17
66196;BME280;53000;45.182;5.736;2023-06-14T01:22:24;98530.06;;;22.00;65.60
66196;BME280;53000;45.182;5.736;2023-06-14T01:24:51;98533.94;;;21.99;65.59
66196;BME280;53000;45.182;5.736;2023-06-14T01:27:23;98539.75;;;22.02;65.88
66196;BME280;53000;45.182;5.736;2023-06-14T01:29:51;98533.41;;;22.02;65.66
66196;BME280;53000;45.182;5.736;2023-06-14T01:32:25;98541.94;;;22.00;65.67
66196;BME280;53000;45.182;5.736;2023-06-14T01:34:51;98538.63;;;21.98;65.69
66196;BME280;53000;45.182;5.736;2023-06-14T01:37:17;98541.09;;;22.00;65.41
66196;BME280;53000;45.182;5.736;2023-06-14T01:39:44;98539.69;;;21.97;65.88
66196;BME280;53000;45.182;5.736;2023-06-14T01:42:10;98536.44;;;22.00;66.00
66196;BME280;53000;45.182;5.736;2023-06-14T01:44:38;98551.03;;;22.01;65.41
66196;BME280;53000;45.182;5.736;2023-06-14T01:47:06;98551.53;;;21.98;65.10
66196;BME280;53000;45.182;5.736;2023-06-14T01:49:34;98549.31;;;21.95;65.76
66196;BME280;53000;45.182;5.736;2023-06-14T01:52:00;98555.66;;;21.95;65.25
66196;BME280;53000;45.182;5.736;2023-06-14T01:54:26;98552.66;;;21.97;65.79
66196;BME280;53000;45.182;5.736;2023-06-14T01:56:51;98555.41;;;21.97;65.51
66196;BME280;53000;45.182;5.736;2023-06-14T01:59:16;98558.97;;;21.97;65.78
66196;BME280;53000;45.182;5.736;2023-06-14T02:01:42;98555.97;;;21.99;66.15
66196;BME280;53000;45.182;5.736;2023-06-14T02:04:07;98558.16;;;21.97;65.67
66196;BME280;53000;45.182;5.736;2023-06-14T02:06:32;98562.00;;;21.96;65.28
66196;BME280;53000;45.182;5.736;2023-06-14T02:09:00;98556.44;;;21.91;66.02
66196;BME280;53000;45.182;5.736;2023-06-14T02:11:26;98556.19;;;21.92;65.79
66196;BME280;53000;45.182;5.736;2023-06-14T02:13:52;98561.97;;;21.91;65.86
66196;BME280;53000;45.182;5.736;2023-06-14T02:16:17;98558.59;;;21.83;65.79
66196;BME280;53000;45.182;5.736;2023-06-14T02:18:43;98565.81;;;21.90;65.94
66196;BME280;53000;45.182;5.736;2023-06-14T02:21:08;98560.81;;;21.87;66.31
66196;BME280;53000;45.182;5.736;2023-06-14T02:23:33;98561.34;;;21.83;66.38
66196;BME280;53000;45.182;5.736;2023-06-14T02:25:59;98571.91;;;21.92;66.19
66196;BME280;53000;45.182;5.736;2023-06-14T02:28:24;98568.56;;;21.90;66.76
66196;BME280;53000;45.182;5.736;2023-06-14T02:30:49;98568.28;;;21.91;66.17
66196;BME280;53000;45.182;5.736;2023-06-14T02:33:15;98572.72;;;21.92;67.02
66196;BME280;53000;45.182;5.736;2023-06-14T02:35:40;98563.88;;;21.90;67.34
66196;BME280;53000;45.182;5.736;2023-06-14T02:38:05;98562.53;;;21.93;66.43
66196;BME280;53000;45.182;5.736;2023-06-14T02:40:31;98572.72;;;21.92;66.63
66196;BME280;53000;45.182;5.736;2023-06-14T02:42:56;98570.22;;;21.91;66.80
66196;BME280;53000;45.182;5.736;2023-06-14T02:45:21;98567.78;;;21.94;66.38
66196;BME280;53000;45.182;5.736;2023-06-14T02:47:47;98567.50;;;21.96;66.28
66196;BME280;53000;45.182;5.736;2023-06-14T02:50:13;98575.22;;;21.94;66.15
66196;BME280;53000;45.182;5.736;2023-06-14T02:52:38;98573.81;;;21.91;66.34
66196;BME280;53000;45.182;5.736;2023-06-14T02:55:07;98564.94;;;21.84;66.10
66196;BME280;53000;45.182;5.736;2023-06-14T02:57:33;98566.53;;;21.80;66.59
66196;BME280;53000;45.182;5.736;2023-06-14T02:59:58;98560.44;;;21.78;66.71
66196;BME280;53000;45.182;5.736;2023-06-14T03:02:24;98569.50;;;21.73;66.79
66196;BME280;53000;45.182;5.736;2023-06-14T03:04:49;98565.59;;;21.69;66.92
66196;BME280;53000;45.182;5.736;2023-06-14T03:07:15;98571.34;;;21.68;66.39
66196;BME280;53000;45.182;5.736;2023-06-14T03:09:44;98572.97;;;21.63;66.56
66196;BME280;53000;45.182;5.736;2023-06-14T03:12:10;98577.91;;;21.61;67.08
66196;BME280;53000;45.182;5.736;2023-06-14T03:14:36;98573.25;;;21.62;66.98
66196;BME280;53000;45.182;5.736;2023-06-14T03:17:04;98571.81;;;21.59;66.67
66196;BME280;53000;45.182;5.736;2023-06-14T03:19:30;98562.72;;;21.59;66.90
66196;BME280;53000;45.182;5.736;2023-06-14T03:21:56;98569.91;;;21.60;66.27
66196;BME280;53000;45.182;5.736;2023-06-14T03:24:24;98571.06;;;21.64;66.89
66196;BME280;53000;45.182;5.736;2023-06-14T03:26:52;98571.88;;;21.64;66.86
66196;BME280;53000;45.182;5.736;2023-06-14T03:29:17;98568.59;;;21.68;66.09
66196;BME280;53000;45.182;5.736;2023-06-14T03:32:00;98571.94;;;21.70;66.05
66196;BME280;53000;45.182;5.736;2023-06-14T03:34:25;98566.41;;;21.70;66.39
66196;BME280;53000;45.182;5.736;2023-06-14T03:36:51;98561.78;;;21.70;66.29
66196;BME280;53000;45.182;5.736;2023-06-14T03:39:16;98566.50;;;21.75;66.28
66196;BME280;53000;45.182;5.736;2023-06-14T03:41:41;98568.72;;;21.78;66.57
66196;BME280;53000;45.182;5.736;2023-06-14T03:44:07;98570.41;;;21.79;67.03
66196;BME280;53000;45.182;5.736;2023-06-14T03:46:32;98565.72;;;21.79;66.69
66196;BME280;53000;45.182;5.736;2023-06-14T03:49:00;98571.78;;;21.81;66.75
66196;BME280;53000;45.182;5.736;2023-06-14T03:51:27;98566.28;;;21.81;67.01
66196;BME280;53000;45.182;5.736;2023-06-14T03:53:53;98569.63;;;21.83;66.92
66196;BME280;53000;45.182;5.736;2023-06-14T03:56:19;98561.84;;;21.80;66.80
66196;BME280;53000;45.182;5.736;2023-06-14T03:58:45;98567.44;;;21.85;66.50
66196;BME280;53000;45.182;5.736;2023-06-14T04:01:10;98568.75;;;21.83;66.38
66196;BME280;53000;45.182;5.736;2023-06-14T04:03:37;98573.44;;;21.82;66.36
66196;BME280;53000;45.182;5.736;2023-06-14T04:06:04;98578.38;;;21.80;67.08
66196;BME280;53000;45.182;5.736;2023-06-14T04:08:30;98575.59;;;21.75;66.68
66196;BME280;53000;45.182;5.736;2023-06-14T04:10:56;98575.00;;;21.73;66.83
66196;BME280;53000;45.182;5.736;2023-06-14T04:13:21;98582.13;;;21.69;66.74
66196;BME280;53000;45.182;5.736;2023-06-14T04:15:46;98563.31;;;21.61;66.60
66196;BME280;53000;45.182;5.736;2023-06-14T04:18:12;98581.56;;;21.67;66.44
66196;BME280;53000;45.182;5.736;2023-06-14T04:20:38;98586.47;;;21.65;66.84
66196;BME280;53000;45.182;5.736;2023-06-14T04:23:17;98586.72;;;21.63;66.83
66196;BME280;53000;45.182;5.736;2023-06-14T04:25:47;98593.59;;;21.61;66.83
66196;BME280;53000;45.182;5.736;2023-06-14T04:28:13;98591.38;;;21.58;67.03
66196;BME280;53000;45.182;5.736;2023-06-14T04:30:42;98586.91;;;21.52;66.71
66196;BME280;53000;45.182;5.736;2023-06-14T04:33:08;98600.66;;;21.52;67.21
66196;BME280;53000;45.182;5.736;2023-06-14T04:35:35;98612.59;;;21.57;67.03
66196;BME280;53000;45.182;5.736;2023-06-14T04:38:01;98618.13;;;21.62;67.31
66196;BME280;53000;45.182;5.736;2023-06-14T04:40:29;98613.69;;;21.61;67.47
66196;BME280;53000;45.182;5.736;2023-06-14T04:42:54;98619.75;;;21.58;67.11
66196;BME280;53000;45.182;5.736;2023-06-14T04:45:20;98615.63;;;21.61;66.81
66196;BME280;53000;45.182;5.736;2023-06-14T04:47:47;98626.72;;;21.66;66.71
66196;BME280;53000;45.182;5.736;2023-06-14T04:52:38;98623.91;;;21.61;67.24
66196;BME280;53000;45.182;5.736;2023-06-14T04:55:03;98618.34;;;21.56;66.65
66196;BME280;53000;45.182;5.736;2023-06-14T04:57:29;98618.59;;;21.54;66.44
66196;BME280;53000;45.182;5.736;2023-06-14T04:59:54;98622.69;;;21.52;66.51
66196;BME280;53000;45.182;5.736;2023-06-14T05:02:23;98625.50;;;21.57;66.26
66196;BME280;53000;45.182;5.736;2023-06-14T05:04:50;98619.75;;;21.58;66.17
66196;BME280;53000;45.182;5.736;2023-06-14T05:07:15;98628.56;;;21.60;65.88
66196;BME280;53000;45.182;5.736;2023-06-14T05:09:41;98620.06;;;21.62;65.95
66196;BME280;53000;45.182;5.736;2023-06-14T05:12:06;98625.81;;;21.60;66.08
66196;BME280;53000;45.182;5.736;2023-06-14T05:14:35;98624.22;;;21.64;65.65
66196;BME280;53000;45.182;5.736;2023-06-14T05:17:01;98633.38;;;21.70;65.84
66196;BME280;53000;45.182;5.736;2023-06-14T05:19:27;98630.63;;;21.70;65.81
66196;BME280;53000;45.182;5.736;2023-06-14T05:21:53;98632.03;;;21.73;65.48
66196;BME280;53000;45.182;5.736;2023-06-14T05:24:18;98633.94;;;21.72;66.05
66196;BME280;53000;45.182;5.736;2023-06-14T05:26:44;98645.28;;;21.76;65.95
66196;BME280;53000;45.182;5.736;2023-06-14T05:29:10;98645.34;;;21.81;65.75
66196;BME280;53000;45.182;5.736;2023-06-14T05:31:35;98636.56;;;21.84;65.51
66196;BME280;53000;45.182;5.736;2023-06-14T05:34:01;98640.47;;;21.88;65.35
66196;BME280;53000;45.182;5.736;2023-06-14T05:36:26;98632.50;;;21.92;65.59
66196;BME280;53000;45.182;5.736;2023-06-14T05:38:53;98639.22;;;22.01;64.94
66196;BME280;53000;45.182;5.736;2023-06-14T05:41:28;98651.97;;;22.07;64.70
66196;BME280;53000;45.182;5.736;2023-06-14T05:43:55;98651.69;;;22.09;64.99
66196;BME280;53000;45.182;5.736;2023-06-14T05:46:21;98651.69;;;22.09;64.97
66196;BME280;53000;45.182;5.736;2023-06-14T05:48:50;98647.59;;;22.11;64.65
66196;BME280;53000;45.182;5.736;2023-06-14T05:51:15;98652.56;;;22.14;64.79
66196;BME280;53000;45.182;5.736;2023-06-14T05:53:50;98647.06;;;22.14;64.89
66196;BME280;53000;45.182;5.736;2023-06-14T05:56:16;98641.88;;;22.18;65.10
66196;BME280;53000;45.182;5.736;2023-06-14T05:58:43;98653.19;;;22.21;65.06
66196;BME280;53000;45.182;5.736;2023-06-14T06:01:08;98653.19;;;22.21;64.54
66196;BME280;53000;45.182;5.736;2023-06-14T06:03:34;98654.66;;;22.24;64.81
66196;BME280;53000;45.182;5.736;2023-06-14T06:05:59;98651.34;;;22.27;64.80
66196;BME280;53000;45.182;5.736;2023-06-14T06:08:26;98644.75;;;22.28;64.36
66196;BME280;53000;45.182;5.736;2023-06-14T06:10:51;98648.03;;;22.25;64.22
66196;BME280;53000;45.182;5.736;2023-06-14T06:13:16;98651.88;;;22.24;64.24
66196;BME280;53000;45.182;5.736;2023-06-14T06:15:42;98654.34;;;22.25;64.36
66196;BME280;53000;45.182;5.736;2023-06-14T06:18:07;98653.53;;;22.25;64.12
66196;BME280;53000;45.182;5.736;2023-06-14T06:20:32;98658.25;;;22.30;64.27
66196;BME280;53000;45.182;5.736;2023-06-14T06:22:58;98645.88;;;22.32;63.73
66196;BME280;53000;45.182;5.736;2023-06-14T06:25:25;98646.72;;;22.33;64.20
66196;BME280;53000;45.182;5.736;2023-06-14T06:27:52;98645.34;;;22.30;64.29
66196;BME280;53000;45.182;5.736;2023-06-14T06:30:18;98643.09;;;22.27;64.05
66196;BME280;53000;45.182;5.736;2023-06-14T06:32:44;98644.47;;;22.30;64.33
66196;BME280;53000;45.182;5.736;2023-06-14T06:35:09;98639.81;;;22.30;64.39
66196;BME280;53000;45.182;5.736;2023-06-14T06:37:36;98633.19;;;22.31;64.57
66196;BME280;53000;45.182;5.736;2023-06-14T06:40:02;98628.56;;;22.37;64.45
66196;BME280;53000;45.182;5.736;2023-06-14T06:42:29;98625.84;;;22.42;64.21
66196;BME280;53000;45.182;5.736;2023-06-14T06:44:54;98633.88;;;22.43;64.24
66196;BME280;53000;45.182;5.736;2023-06-14T06:47:20;98648.22;;;22.45;64.46
66196;BME280;53000;45.182;5.736;2023-06-14T06:49:45;98645.47;;;22.45;64.34
66196;BME280;53000;45.182;5.736;2023-06-14T06:52:10;98650.13;;;22.45;64.43
66196;BME280;53000;45.182;5.736;2023-06-14T06:54:36;98654.03;;;22.49;64.41
66196;BME280;53000;45.182;5.736;2023-06-14T06:57:01;98650.78;;;22.57;64.88
66196;BME280;53000;45.182;5.736;2023-06-14T06:59:27;98648.91;;;22.63;64.32
66196;BME280;53000;45.182;5.736;2023-06-14T07:01:52;98653.63;;;22.67;64.56
66196;BME280;53000;45.182;5.736;2023-06-14T07:04:18;98636.19;;;22.62;63.62
66196;BME280;53000;45.182;5.736;2023-06-14T07:06:43;98656.41;;;22.73;64.42
66196;BME280;53000;45.182;5.736;2023-06-14T07:09:09;98660.84;;;22.74;64.20
66196;BME280;53000;45.182;5.736;2023-06-14T07:11:38;98658.66;;;22.76;64.18
66196;BME280;53000;45.182;5.736;2023-06-14T07:14:04;98662.81;;;22.78;63.76
66196;BME280;53000;45.182;5.736;2023-06-14T07:16:30;98661.44;;;22.81;64.52
66196;BME280;53000;45.182;5.736;2023-06-14T07:18:55;98670.88;;;22.85;64.19
66196;BME280;53000;45.182;5.736;2023-06-14T07:21:21;98664.78;;;22.83;64.04
66196;BME280;53000;45.182;5.736;2023-06-14T07:23:47;98671.75;;;22.91;64.50
66196;BME280;53000;45.182;5.736;2023-06-14T07:26:12;98670.63;;;22.92;64.21
66196;BME280;53000;45.182;5.736;2023-06-14T07:28:37;98674.84;;;22.99;64.56
66196;BME280;53000;45.182;5.736;2023-06-14T07:31:03;98672.97;;;23.05;64.69
66196;BME280;53000;45.182;5.736;2023-06-14T07:33:28;98671.31;;;23.04;64.48
66196;BME280;53000;45.182;5.736;2023-06-14T07:35:53;98669.38;;;23.04;64.27
66196;BME280;53000;45.182;5.736;2023-06-14T07:38:19;98670.00;;;23.12;64.08
66196;BME280;53000;45.182;5.736;2023-06-14T07:40:45;98678.06;;;23.23;64.60
66196;BME280;53000;45.182;5.736;2023-06-14T07:43:10;98671.78;;;23.33;64.41
66196;BME280;53000;45.182;5.736;2023-06-14T07:45:36;98674.81;;;23.37;63.91
66196;BME280;53000;45.182;5.736;2023-06-14T07:48:02;98672.63;;;23.39;63.60
66196;BME280;53000;45.182;5.736;2023-06-14T07:50:28;98672.09;;;23.42;63.51
66196;BME280;53000;45.182;5.736;2023-06-14T07:52:54;98672.38;;;23.45;63.66
66196;BME280;53000;45.182;5.736;2023-06-14T07:55:19;98678.44;;;23.47;63.31
66196;BME280;53000;45.182;5.736;2023-06-14T07:57:44;98667.72;;;23.51;63.50
66196;BME280;53000;45.182;5.736;2023-06-14T08:00:10;98671.09;;;23.63;63.15
66196;BME280;53000;45.182;5.736;2023-06-14T08:02:43;98672.56;;;23.76;62.92
66196;BME280;53000;45.182;5.736;2023-06-14T08:05:09;98672.34;;;23.93;62.84
66196;BME280;53000;45.182;5.736;2023-06-14T08:07:36;98675.13;;;24.08;62.43
66196;BME280;53000;45.182;5.736;2023-06-14T08:10:02;98673.25;;;24.40;62.34
66196;BME280;53000;45.182;5.736;2023-06-14T08:12:27;98671.63;;;25.00;61.68
66196;BME280;53000;45.182;5.736;2023-06-14T08:14:52;98679.47;;;25.74;59.24
66196;BME280;53000;45.182;5.736;2023-06-14T08:17:18;98670.69;;;26.16;57.35
66196;BME280;53000;45.182;5.736;2023-06-14T08:19:43;98674.41;;;26.41;57.83
66196;BME280;53000;45.182;5.736;2023-06-14T08:22:08;98675.06;;;26.67;56.34
66196;BME280;53000;45.182;5.736;2023-06-14T08:24:36;98668.22;;;26.88;56.15
66196;BME280;53000;45.182;5.736;2023-06-14T08:27:02;98656.91;;;27.09;56.49
66196;BME280;53000;45.182;5.736;2023-06-14T08:29:27;98667.25;;;27.57;54.65
66196;BME280;53000;45.182;5.736;2023-06-14T08:31:54;98663.69;;;28.18;55.36
66196;BME280;53000;45.182;5.736;2023-06-14T08:34:20;98670.91;;;28.76;53.51
66196;BME280;53000;45.182;5.736;2023-06-14T08:36:45;98675.78;;;29.17;52.33
66196;BME280;53000;45.182;5.736;2023-06-14T08:39:10;98669.94;;;29.60;50.46
66196;BME280;53000;45.182;5.736;2023-06-14T08:41:37;98671.28;;;29.90;51.74
66196;BME280;53000;45.182;5.736;2023-06-14T08:44:02;98668.00;;;30.39;48.81
66196;BME280;53000;45.182;5.736;2023-06-14T08:46:32;98672.09;;;31.00;49.82
66196;BME280;53000;45.182;5.736;2023-06-14T08:48:59;98655.78;;;31.56;46.52
66196;BME280;53000;45.182;5.736;2023-06-14T08:51:25;98667.16;;;32.17;46.90
66196;BME280;53000;45.182;5.736;2023-06-14T08:53:54;98668.00;;;32.52;40.24
66196;BME280;53000;45.182;5.736;2023-06-14T08:56:25;98669.00;;;32.83;45.85
66196;BME280;53000;45.182;5.736;2023-06-14T08:58:51;98665.94;;;33.23;44.47
66196;BME280;53000;45.182;5.736;2023-06-14T09:01:16;98665.19;;;33.52;42.13
66196;BME280;53000;45.182;5.736;2023-06-14T09:03:43;98667.53;;;33.79;43.26
66196;BME280;53000;45.182;5.736;2023-06-14T09:06:10;98666.75;;;34.00;39.37
66196;BME280;53000;45.182;5.736;2023-06-14T09:08:41;98668.47;;;34.22;41.31
66196;BME280;53000;45.182;5.736;2023-06-14T09:11:07;98670.91;;;34.45;42.27
66196;BME280;53000;45.182;5.736;2023-06-14T09:13:33;98654.69;;;34.50;40.82
66196;BME280;53000;45.182;5.736;2023-06-14T09:15:59;98663.84;;;34.59;40.31
66196;BME280;53000;45.182;5.736;2023-06-14T09:18:42;98665.16;;;34.62;40.41
66196;BME280;53000;45.182;5.736;2023-06-14T09:21:14;98668.50;;;34.55;36.44
66196;BME280;53000;45.182;5.736;2023-06-14T09:23:41;98660.22;;;34.38;38.52
66196;BME280;53000;45.182;5.736;2023-06-14T09:26:11;98670.56;;;34.25;39.69
66196;BME280;53000;45.182;5.736;2023-06-14T09:28:36;98661.09;;;34.09;38.15
66196;BME280;53000;45.182;5.736;2023-06-14T09:31:07;98666.47;;;33.93;38.98
66196;BME280;53000;45.182;5.736;2023-06-14T09:33:34;98663.22;;;33.82;39.16
66196;BME280;53000;45.182;5.736;2023-06-14T09:35:59;98660.69;;;33.68;38.95
66196;BME280;53000;45.182;5.736;2023-06-14T09:38:25;98657.78;;;33.47;37.79
66196;BME280;53000;45.182;5.736;2023-06-14T09:40:51;98661.47;;;33.30;39.13
66196;BME280;53000;45.182;5.736;2023-06-14T09:43:17;98652.75;;;33.23;37.74
66196;BME280;53000;45.182;5.736;2023-06-14T09:45:44;98655.25;;;33.16;39.38
66196;BME280;53000;45.182;5.736;2023-06-14T09:48:11;98653.78;;;33.10;38.32
66196;BME280;53000;45.182;5.736;2023-06-14T09:50:44;98653.28;;;32.99;38.05
66196;BME280;53000;45.182;5.736;2023-06-14T09:53:11;98645.53;;;32.96;38.52
66196;BME280;53000;45.182;5.736;2023-06-14T09:55:37;98649.38;;;32.83;39.65
66196;BME280;53000;45.182;5.736;2023-06-14T09:58:07;98649.72;;;32.72;39.06
66196;BME280;53000;45.182;5.736;2023-06-14T10:00:36;98640.84;;;32.53;35.63
66196;BME280;53000;45.182;5.736;2023-06-14T10:03:25;98654.94;;;32.22;38.30
66196;BME280;53000;45.182;5.736;2023-06-14T10:05:50;98644.41;;;32.10;38.90
66196;BME280;53000;45.182;5.736;2023-06-14T10:08:18;98641.41;;;31.97;38.39
66196;BME280;53000;45.182;5.736;2023-06-14T10:10:45;98648.63;;;31.90;39.86
66196;BME280;53000;45.182;5.736;2023-06-14T10:13:11;98639.59;;;31.93;39.57
66196;BME280;53000;45.182;5.736;2023-06-14T10:15:54;98651.97;;;32.01;40.11
66196;BME280;53000;45.182;5.736;2023-06-14T10:21:18;98652.56;;;31.80;35.52
66196;BME280;53000;45.182;5.736;2023-06-14T10:23:48;98636.06;;;31.30;35.60
66196;BME280;53000;45.182;5.736;2023-06-14T10:26:22;98638.38;;;30.96;38.75
66196;BME280;53000;45.182;5.736;2023-06-14T10:28:57;98633.66;;;30.83;39.39
66196;BME280;53000;45.182;5.736;2023-06-14T10:31:39;98630.03;;;30.83;39.55
66196;BME280;53000;45.182;5.736;2023-06-14T10:34:05;98641.47;;;30.95;39.07
66196;BME280;53000;45.182;5.736;2023-06-14T10:36:31;98624.59;;;31.00;39.45
66196;BME280;53000;45.182;5.736;2023-06-14T10:41:30;98626.53;;;31.00;40.01
66196;BME280;53000;45.182;5.736;2023-06-14T10:44:32;98628.06;;;31.06;39.67
66196;BME280;53000;45.182;5.736;2023-06-14T10:47:01;98617.56;;;31.11;39.16
66196;BME280;53000;45.182;5.736;2023-06-14T10:49:43;98614.47;;;31.13;39.44
66196;BME280;53000;45.182;5.736;2023-06-14T10:52:11;98618.44;;;31.21;40.46
66196;BME280;53000;45.182;5.736;2023-06-14T10:57:44;98612.41;;;31.36;39.57
66196;BME280;53000;45.182;5.736;2023-06-14T11:00:12;98605.00;;;31.40;38.85
66196;BME280;53000;45.182;5.736;2023-06-14T11:05:14;98608.72;;;31.58;39.42
66196;BME280;53000;45.182;5.736;2023-06-14T11:10:41;98618.50;;;31.87;39.45
66196;BME280;53000;45.182;5.736;2023-06-14T11:13:07;98610.44;;;31.94;38.39
66196;BME280;53000;45.182;5.736;2023-06-14T11:15:37;98608.13;;;31.96;39.14
66196;BME280;53000;45.182;5.736;2023-06-14T11:18:05;98604.84;;;31.94;37.40
66196;BME280;53000;45.182;5.736;2023-06-14T11:20:32;98604.19;;;31.97;38.34
66196;BME280;53000;45.182;5.736;2023-06-14T11:22:58;98604.88;;;32.03;37.29
66196;BME280;53000;45.182;5.736;2023-06-14T11:25:24;98598.31;;;32.07;37.33
66196;BME280;53000;45.182;5.736;2023-06-14T11:27:50;98599.94;;;31.99;36.60
66196;BME280;53000;45.182;5.736;2023-06-14T11:30:16;98594.81;;;31.93;37.88
66196;BME280;53000;45.182;5.736;2023-06-14T11:32:42;98599.09;;;31.90;36.53
66196;BME280;53000;45.182;5.736;2023-06-14T11:35:08;98598.75;;;31.92;37.54
66196;BME280;53000;45.182;5.736;2023-06-14T11:37:36;98597.28;;;31.94;37.74
66196;BME280;53000;45.182;5.736;2023-06-14T11:40:03;98589.53;;;31.91;35.67
66196;BME280;53000;45.182;5.736;2023-06-14T11:42:35;98588.03;;;31.85;37.14
66196;BME280;53000;45.182;5.736;2023-06-14T11:45:01;98587.72;;;31.87;35.59
66196;BME280;53000;45.182;5.736;2023-06-14T11:47:33;98583.09;;;31.91;37.42
66196;BME280;53000;45.182;5.736;2023-06-14T11:49:59;98586.91;;;31.95;35.36
66196;BME280;53000;45.182;5.736;2023-06-14T11:52:25;98567.97;;;32.01;35.56
66196;BME280;53000;45.182;5.736;2023-06-14T11:54:51;98583.16;;;31.99;34.56
66196;BME280;53000;45.182;5.736;2023-06-14T11:57:18;98564.00;;;31.93;32.73
66196;BME280;53000;45.182;5.736;2023-06-14T11:59:44;98563.19;;;31.84;32.08
66196;BME280;53000;45.182;5.736;2023-06-14T12:02:19;98575.34;;;31.79;35.39
66196;BME280;53000;45.182;5.736;2023-06-14T12:04:47;98573.72;;;31.78;36.16
66196;BME280;53000;45.182;5.736;2023-06-14T12:07:16;98570.09;;;31.86;36.27
66196;BME280;53000;45.182;5.736;2023-06-14T12:12:25;98570.59;;;31.88;36.21
66196;BME280;53000;45.182;5.736;2023-06-14T12:14:55;98574.75;;;31.99;36.81
66196;BME280;53000;45.182;5.736;2023-06-14T12:17:22;98567.84;;;32.06;35.28
66196;BME280;53000;45.182;5.736;2023-06-14T12:19:48;98571.13;;;32.08;35.55
66196;BME280;53000;45.182;5.736;2023-06-14T12:22:15;98567.34;;;32.12;36.00
66196;BME280;53000;45.182;5.736;2023-06-14T12:24:44;98571.75;;;32.22;36.93
66196;BME280;53000;45.182;5.736;2023-06-14T12:27:10;98575.91;;;32.33;36.74
66196;BME280;53000;45.182;5.736;2023-06-14T12:29:41;98578.00;;;32.45;35.86
66196;BME280;53000;45.182;5.736;2023-06-14T12:32:11;98572.56;;;32.49;33.04
66196;BME280;53000;45.182;5.736;2023-06-14T12:34:36;98558.06;;;32.47;30.85
66196;BME280;53000;45.182;5.736;2023-06-14T12:37:02;98561.19;;;32.45;30.65
66196;BME280;53000;45.182;5.736;2023-06-14T12:39:29;98568.81;;;32.53;33.09
66196;BME280;53000;45.182;5.736;2023-06-14T12:41:56;98562.50;;;32.48;29.79
66196;BME280;53000;45.182;5.736;2023-06-14T12:44:22;98562.69;;;32.51;31.53
66196;BME280;53000;45.182;5.736;2023-06-14T12:46:48;98565.00;;;32.49;33.47
66196;BME280;53000;45.182;5.736;2023-06-14T12:49:16;98565.16;;;32.62;34.51
66196;BME280;53000;45.182;5.736;2023-06-14T12:51:41;98564.16;;;32.66;34.51
66196;BME280;53000;45.182;5.736;2023-06-14T12:54:07;98573.22;;;32.72;35.23
66196;BME280;53000;45.182;5.736;2023-06-14T12:56:32;98570.22;;;32.77;35.58
66196;BME280;53000;45.182;5.736;2023-06-14T12:58:58;98576.31;;;32.79;35.96
66196;BME280;53000;45.182;5.736;2023-06-14T13:01:23;98581.09;;;32.87;35.84
66196;BME280;53000;45.182;5.736;2023-06-14T13:03:49;98559.66;;;32.91;34.27
66196;BME280;53000;45.182;5.736;2023-06-14T13:06:16;98564.59;;;32.86;34.99
66196;BME280;53000;45.182;5.736;2023-06-14T13:08:42;98573.03;;;32.77;34.34
66196;BME280;53000;45.182;5.736;2023-06-14T13:11:08;98568.13;;;32.74;35.46
66196;BME280;53000;45.182;5.736;2023-06-14T13:13:33;98562.66;;;32.69;33.08
66196;BME280;53000;45.182;5.736;2023-06-14T13:15:59;98561.88;;;32.59;31.94
66196;BME280;53000;45.182;5.736;2023-06-14T13:18:24;98556.47;;;32.54;31.35
66196;BME280;53000;45.182;5.736;2023-06-14T13:20:50;98555.94;;;32.52;32.47
66196;BME280;53000;45.182;5.736;2023-06-14T13:23:16;98547.03;;;32.50;30.94
66196;BME280;53000;45.182;5.736;2023-06-14T13:25:41;98552.66;;;32.50;32.77
66196;BME280;53000;45.182;5.736;2023-06-14T13:28:06;98551.16;;;32.62;32.88
66196;BME280;53000;45.182;5.736;2023-06-14T13:30:32;98559.03;;;32.77;31.37
66196;BME280;53000;45.182;5.736;2023-06-14T13:32:58;98559.47;;;32.88;31.74
66196;BME280;53000;45.182;5.736;2023-06-14T13:35:24;98559.13;;;32.98;29.63
66196;BME280;53000;45.182;5.736;2023-06-14T13:37:50;98542.94;;;33.04;28.30
66196;BME280;53000;45.182;5.736;2023-06-14T13:40:15;98542.78;;;33.09;30.46
66196;BME280;53000;45.182;5.736;2023-06-14T13:42:41;98537.81;;;33.14;31.12
66196;BME280;53000;45.182;5.736;2023-06-14T13:45:07;98541.56;;;33.18;29.97
66196;BME280;53000;45.182;5.736;2023-06-14T13:47:33;98547.50;;;33.26;30.60
66196;BME280;53000;45.182;5.736;2023-06-14T13:49:58;98540.16;;;33.33;30.47
66196;BME280;53000;45.182;5.736;2023-06-14T13:52:24;98546.75;;;33.37;29.09
66196;BME280;53000;45.182;5.736;2023-06-14T13:54:49;98551.50;;;33.46;30.47